createdAt,value
2022-09-05T00:03:46.166Z,13.25
2022-09-05T00:10:05.789Z,14.32
2022-09-05T00:16:47.180Z,12.93
2022-09-05T00:24:35.364Z,13.82
2022-09-05T00:30:09.897Z,12.77
2022-09-05T00:36:32.427Z,12.27
2022-09-05T00:42:34.889Z,13.88
2022-09-05T00:55:01.882Z,14.32
2022-09-05T01:01:21.469Z,12.98
2022-09-05T01:07:26.765Z,12.73
2022-09-05T01:13:48.093Z,12.98
2022-09-05T01:20:19.510Z,12.70
2022-09-05T01:26:56.787Z,11.95
2022-09-05T01:33:06.533Z,11.00
2022-09-05T01:40:12.499Z,11.98
2022-09-05T01:46:01.122Z,10.75
2022-09-05T01:52:29.114Z,13.18
2022-09-05T01:59:04.055Z,12.07
2022-09-05T02:05:13.199Z,12.35
2022-09-05T02:11:35.635Z,12.30
2022-09-05T02:17:50.897Z,11.32
2022-09-05T02:24:04.607Z,11.93
2022-09-05T02:30:18.153Z,12.85
2022-09-05T02:36:23.311Z,13.77
2022-09-05T02:45:07.733Z,13.05
2022-09-05T02:57:38.986Z,12.50
2022-09-05T03:03:02.197Z,11.75
2022-09-05T03:09:17.153Z,11.93
2022-09-05T03:15:29.136Z,12.18
2022-09-05T03:22:08.608Z,11.52
2022-09-05T03:28:48.483Z,11.40
2022-09-05T03:35:28.038Z,11.63
2022-09-05T03:42:14.446Z,11.43
2022-09-05T03:48:28.397Z,11.30
2022-09-05T03:57:14.941Z,12.43
2022-09-05T04:04:22.718Z,10.68
2022-09-05T04:08:34.337Z,11.60
2022-09-05T04:14:51.244Z,11.52
2022-09-05T04:21:23.350Z,11.38
2022-09-05T04:27:32.115Z,10.35
2022-09-05T04:33:55.856Z,10.07
2022-09-05T04:40:18.103Z,10.32
2022-09-05T04:46:23.340Z,8.77
2022-09-05T04:52:55.135Z,7.63
2022-09-05T05:02:41.887Z,8.50
2022-09-05T05:06:08.723Z,8.05
2022-09-05T05:18:02.895Z,6.50
2022-09-05T05:19:21.253Z,5.53
2022-09-05T05:25:24.440Z,5.13
2022-09-05T05:31:32.285Z,4.80
2022-09-05T05:37:50.060Z,6.70
2022-09-05T05:43:52.618Z,6.72
2022-09-05T05:49:59.777Z,6.53
2022-09-05T05:56:05.168Z,4.93
2022-09-05T06:02:43.375Z,3.97
2022-09-05T06:11:20.438Z,4.75
2022-09-05T06:15:27.327Z,8.13
2022-09-05T06:22:10.216Z,6.68
2022-09-05T06:28:18.879Z,5.07
2022-09-05T06:35:00.100Z,4.63
2022-09-05T06:41:39.208Z,4.50
2022-09-05T06:47:44.657Z,4.38
2022-09-05T06:54:05.980Z,4.18
2022-09-05T07:00:17.499Z,5.55
2022-09-05T07:06:49.422Z,5.55
2022-09-05T07:19:12.658Z,3.50
2022-09-05T07:25:19.030Z,3.08
2022-09-05T07:31:27.413Z,2.78
2022-09-05T07:37:43.480Z,2.90
2022-09-05T07:43:48.279Z,2.85
2022-09-05T07:50:27.950Z,2.90
2022-09-05T07:56:59.012Z,2.83
2022-09-05T08:02:46.951Z,2.78
2022-09-05T08:09:21.580Z,2.45
2022-09-05T08:15:51.031Z,2.75
2022-09-05T08:21:53.108Z,2.40
2022-09-05T08:27:56.085Z,3.38
2022-09-05T08:34:03.754Z,3.05
2022-09-05T08:40:30.483Z,3.70
2022-09-05T08:46:56.724Z,6.22
2022-09-05T08:52:59.536Z,6.80
2022-09-05T08:59:31.509Z,3.20
2022-09-05T09:06:14.197Z,11.60
2022-09-05T09:12:17.784Z,9.10
2022-09-05T09:18:21.655Z,2.45
2022-09-05T09:24:45.089Z,9.93
2022-09-05T09:31:18.268Z,2.72
2022-09-05T09:37:53.410Z,2.65
2022-09-05T09:44:16.307Z,2.75
2022-09-05T09:50:52.038Z,2.25
2022-09-05T09:57:10.046Z,2.42
2022-09-05T10:10:02.991Z,2.95
2022-09-05T10:11:09.670Z,2.88
2022-09-05T10:17:23.405Z,3.10
2022-09-05T10:23:49.598Z,2.60
2022-09-05T10:30:09.349Z,3.33
2022-09-05T10:36:25.146Z,5.72
2022-09-05T10:42:43.473Z,2.28
2022-09-05T10:49:10.277Z,2.50
2022-09-05T10:55:22.457Z,2.40
2022-09-05T11:02:29.253Z,2.63
2022-09-05T11:08:42.845Z,3.47
2022-09-05T11:14:53.785Z,2.20
2022-09-05T11:21:17.794Z,2.70
2022-09-05T11:27:32.961Z,2.70
2022-09-05T11:39:47.194Z,2.88
2022-09-05T11:40:58.067Z,3.47
2022-09-05T11:47:27.210Z,2.65
2022-09-05T12:06:57.148Z,2.87
2022-09-05T12:13:29.321Z,3.53
2022-09-05T12:19:43.512Z,3.25
2022-09-05T12:27:40.234Z,3.40
2022-09-05T12:35:22.483Z,2.92
2022-09-05T12:40:54.319Z,2.65
2022-09-05T12:46:03.434Z,3.08
2022-09-05T12:52:34.107Z,2.60
2022-09-05T13:03:02.598Z,2.58
2022-09-05T13:05:17.901Z,2.95
2022-09-05T13:14:49.267Z,3.00
2022-09-05T13:18:03.084Z,6.57
2022-09-05T13:24:12.488Z,3.47
2022-09-05T13:31:40.655Z,3.00
2022-09-05T13:38:11.969Z,3.03
2022-09-05T13:43:39.347Z,3.28
2022-09-05T13:50:05.166Z,3.08
2022-09-05T13:56:24.451Z,2.65
2022-09-05T14:10:03.421Z,3.15
2022-09-05T14:16:13.832Z,2.83
2022-09-05T14:22:52.583Z,3.10
2022-09-05T14:29:18.592Z,2.95
2022-09-05T14:37:49.876Z,2.95
2022-09-05T14:42:21.583Z,3.30
2022-09-05T14:49:01.631Z,2.92
2022-09-05T14:55:19.876Z,3.75
2022-09-05T15:02:56.672Z,3.17
2022-09-05T15:08:42.561Z,2.88
2022-09-05T15:14:32.025Z,4.88
2022-09-05T15:20:36.859Z,3.38
2022-09-05T15:26:53.058Z,3.35
2022-09-05T15:33:25.628Z,3.50
2022-09-05T15:39:33.612Z,3.03
2022-09-05T15:45:37.714Z,3.80
2022-09-05T15:51:44.294Z,3.60
2022-09-05T15:57:57.290Z,2.65
2022-09-05T16:06:20.004Z,3.45
2022-09-05T16:10:42.216Z,3.13
2022-09-05T16:23:11.856Z,2.88
2022-09-05T16:23:40.754Z,3.28
2022-09-05T16:29:46.670Z,3.30
2022-09-05T16:36:15.482Z,3.78
2022-09-05T16:42:47.377Z,4.20
2022-09-05T16:49:11.651Z,4.07
2022-09-05T16:55:31.974Z,6.35
2022-09-05T17:02:05.585Z,4.10
2022-09-05T17:08:35.850Z,3.40
2022-09-05T17:14:44.603Z,2.50
2022-09-05T17:20:51.325Z,3.25
2022-09-05T17:29:38.423Z,2.95
2022-09-05T17:33:20.851Z,3.00
2022-09-05T17:39:44.347Z,2.78
2022-09-05T17:45:53.966Z,2.88
2022-09-05T17:51:56.213Z,3.28
2022-09-05T18:04:47.393Z,4.10
2022-09-05T18:11:14.099Z,4.38
2022-09-05T18:17:36.123Z,4.20
2022-09-05T18:23:54.103Z,4.40
2022-09-05T18:30:10.834Z,4.95
2022-09-05T18:36:18.866Z,5.47
2022-09-05T18:42:34.245Z,3.83
2022-09-05T18:48:44.189Z,5.10
2022-09-05T18:56:11.460Z,5.00
2022-09-05T19:01:53.923Z,4.47
2022-09-05T19:07:59.334Z,5.00
2022-09-05T19:14:37.742Z,4.13
2022-09-05T19:21:19.272Z,4.72
2022-09-05T19:30:58.731Z,4.72
2022-09-05T19:36:52.371Z,6.20
2022-09-05T19:46:26.179Z,4.85
2022-09-05T19:47:45.334Z,5.03
2022-09-05T19:53:07.373Z,4.85
2022-09-05T19:59:34.011Z,5.35
2022-09-05T20:05:41.785Z,4.95
2022-09-05T20:11:52.997Z,4.78
2022-09-05T20:17:59.240Z,5.20
2022-09-05T20:24:14.330Z,4.80
2022-09-05T20:30:20.039Z,4.30
2022-09-05T20:43:17.155Z,4.80
2022-09-05T20:43:28.333Z,4.40
2022-09-05T20:54:22.373Z,5.13
2022-09-05T20:55:49.643Z,5.13
2022-09-05T21:02:00.212Z,5.35
2022-09-05T21:08:17.384Z,5.05
2022-09-05T21:14:21.481Z,5.05
2022-09-05T21:20:25.014Z,5.57
2022-09-05T21:26:29.813Z,5.05
2022-09-05T21:32:41.253Z,5.60
2022-09-05T21:38:44.487Z,5.40
2022-09-05T21:47:41.328Z,5.85
2022-09-05T21:51:13.657Z,5.85
2022-09-05T21:59:33.444Z,5.55
2022-09-05T22:03:42.305Z,6.13
2022-09-05T22:09:45.086Z,5.95
2022-09-05T22:15:48.799Z,5.72
2022-09-05T22:21:53.817Z,5.55
2022-09-05T22:28:12.980Z,5.70
2022-09-05T22:34:15.379Z,6.18
2022-09-05T22:40:18.104Z,5.30
2022-09-05T22:46:20.521Z,5.30
2022-09-05T22:52:22.626Z,5.95
2022-09-05T22:58:25.111Z,5.85
2022-09-05T23:04:27.288Z,5.72
2022-09-05T23:10:30.549Z,5.45
2022-09-05T23:16:32.689Z,6.05
2022-09-05T23:22:38.566Z,6.18
2022-09-05T23:28:43.423Z,6.20
2022-09-05T23:34:46.167Z,5.88
2022-09-05T23:46:50.723Z,5.75
2022-09-05T23:58:55.026Z,5.30
